Bookmark and Share
Track history (hours):
 

MOL Celebration

Last reported at 2014-Apr-07 17:33 UTC. Time now 2014-Apr-16 07:39 UTC.
Position N 01°08' E 103°45'.
Warning: this ship's position is 8 days out of date.

Length 316 m; draft 14.5 m.

Type: Ship (hazmat cat D). MMSI: 309901000.

NotesDate/timePositionNaut miles runAvg speedWind from/ knotsBaromVisibWave heightAir tempDewpointWater temp
2014-Apr-07 17:33N 01°08' E 103°45'9 7.1
2014-Apr-07 16:14N 01°16' E 103°51'1 0.7
2014-Apr-07 15:31N 01°16' E 103°50'0 0.0
2014-Apr-07 14:22N 01°16' E 103°50'0 0.0
2014-Apr-07 13:22N 01°16' E 103°50'0 0.0
2014-Apr-07 12:31N 01°16' E 103°50'0 0.0
2014-Apr-07 11:10N 01°16' E 103°50'0 0.1
2014-Apr-07 10:28N 01°16' E 103°50'0 0.0
2014-Apr-07 09:28N 01°16' E 103°50'0 0.0
2014-Apr-07 08:28N 01°16' E 103°50'0 0.0
2014-Apr-07 06:19N 01°16' E 103°50'0 0.0
2014-Apr-07 05:16N 01°16' E 103°50'0 0.0
2014-Apr-07 03:22N 01°16' E 103°50'0 0.0
2014-Apr-07 02:28N 01°16' E 103°50'0 0.0
2014-Apr-07 01:25N 01°16' E 103°50'0 0.0
2014-Apr-07 00:10N 01°16' E 103°50'0 0.0
2014-Apr-06 23:31N 01°16' E 103°50'0 0.0
2014-Apr-06 22:28N 01°16' E 103°50'0 0.0
2014-Apr-06 21:28N 01°16' E 103°50'0 0.0
2014-Apr-06 20:31N 01°16' E 103°50'0 0.0
2014-Apr-06 19:28N 01°16' E 103°50'0 0.0
2014-Apr-06 18:28N 01°16' E 103°50'0 0.0
2014-Apr-06 17:31N 01°16' E 103°50'0 0.0
2014-Apr-06 16:31N 01°16' E 103°50'0 0.0
2014-Apr-06 15:28N 01°16' E 103°50'0 0.0
2014-Apr-06 14:16N 01°16' E 103°50'0 0.0
2014-Apr-06 13:28N 01°16' E 103°50'0 0.0
2014-Apr-06 12:33N 01°16' E 103°50'3 2.7
2014-Apr-06 11:33N 01°14' E 103°53'2 2.1
2014-Apr-06 10:33N 01°14' E 103°55'  
2014-Apr-01 18:17N 22°15' E 114°07'4 5.9
2014-Apr-01 17:33N 22°20' E 114°07'0 0.1
2014-Apr-01 12:29N 22°20' E 114°08'0 0.0
2014-Apr-01 08:17N 22°20' E 114°08'0 0.0
2014-Apr-01 07:29N 22°20' E 114°08'0 0.0
2014-Apr-01 06:29N 22°20' E 114°08'0 0.0
2014-Apr-01 03:23N 22°20' E 114°08'0 0.0
2014-Mar-31 23:17N 22°20' E 114°08'0 0.0
2014-Mar-31 21:29N 22°20' E 114°08'0 0.0
2014-Mar-31 20:26N 22°20' E 114°08'3 3.1
2014-Mar-31 19:27N 22°17' E 114°06'8 9.2
2014-Mar-31 18:33N 22°11' E 114°12'221 9.6
2014-Mar-30 19:26N 23°29' E 117°57'1617.9
2014-Mar-30 18:33N 23°39' E 118°10'7817.5
2014-Mar-30 14:05N 24°26' E 119°19'2515.4
2014-Mar-30 12:28N 24°42' E 119°40'2215.6
2014-Mar-30 11:05N 24°57' E 119°58'2615.5
2014-Mar-30 09:24N 25°16' E 120°16'  

Dump ship's entire track history

sailing weather and tide predictions

MOL Celebration — C6WW7 — position and weather